createdAt,value
2022-12-05T00:01:23.539Z,26.17
2022-12-05T00:03:52.327Z,25.83
2022-12-05T00:06:20.075Z,25.85
2022-12-05T00:08:47.599Z,25.67
2022-12-05T00:11:17.444Z,25.95
2022-12-05T00:13:45.009Z,22.58
2022-12-05T00:16:14.632Z,23.52
2022-12-05T00:18:41.856Z,24.88
2022-12-05T00:21:13.805Z,25.20
2022-12-05T00:23:40.912Z,27.02
2022-12-05T00:26:07.602Z,26.67
2022-12-05T00:28:35.042Z,28.52
2022-12-05T00:31:07.117Z,28.40
2022-12-05T00:33:33.677Z,28.13
2022-12-05T00:36:12.744Z,27.50
2022-12-05T00:38:39.895Z,26.52
2022-12-05T00:41:08.622Z,27.55
2022-12-05T00:43:35.433Z,28.10
2022-12-05T00:46:10.741Z,28.13
2022-12-05T00:48:37.343Z,28.20
2022-12-05T00:51:10.091Z,27.30
2022-12-05T00:53:36.931Z,26.65
2022-12-05T00:56:19.375Z,27.40
2022-12-05T00:58:47.624Z,25.88
2022-12-05T01:01:22.865Z,24.77
2022-12-05T01:03:52.968Z,23.67
2022-12-05T01:06:20.596Z,25.25
2022-12-05T01:08:47.354Z,24.03
2022-12-05T01:11:16.973Z,25.13
2022-12-05T01:13:44.438Z,25.90
2022-12-05T01:16:17.205Z,25.02
2022-12-05T01:18:44.014Z,24.67
2022-12-05T01:21:11.076Z,26.08
2022-12-05T01:23:37.694Z,26.13
2022-12-05T01:26:10.083Z,25.63
2022-12-05T01:28:37.133Z,24.97
2022-12-05T01:31:25.926Z,23.53
2022-12-05T01:33:54.828Z,24.40
2022-12-05T01:36:22.514Z,24.20
2022-12-05T01:38:49.370Z,23.13
2022-12-05T01:41:25.546Z,23.47
2022-12-05T01:44:12.596Z,23.87
2022-12-05T01:46:44.777Z,22.83
2022-12-05T01:49:15.466Z,22.33
2022-12-05T01:51:46.752Z,21.93
2022-12-05T01:54:15.163Z,22.60
2022-12-05T01:56:46.396Z,24.20
2022-12-05T01:59:14.207Z,23.00
2022-12-05T02:01:41.455Z,24.10
2022-12-05T02:04:08.742Z,23.25
2022-12-05T02:06:35.330Z,22.33
2022-12-05T02:09:02.078Z,23.63
2022-12-05T02:11:31.017Z,24.40
2022-12-05T02:14:15.638Z,26.43
2022-12-05T02:16:54.325Z,24.35
2022-12-05T02:19:48.506Z,25.17
2022-12-05T02:22:30.377Z,25.55
2022-12-05T02:25:13.447Z,25.10
2022-12-05T02:27:52.159Z,24.40
2022-12-05T02:30:24.268Z,24.97
2022-12-05T02:33:05.822Z,24.97
2022-12-05T02:35:38.701Z,24.50
2022-12-05T02:38:14.215Z,25.03
2022-12-05T02:40:44.320Z,25.03
2022-12-05T02:43:21.221Z,25.07
2022-12-05T02:45:52.907Z,24.67
2022-12-05T02:48:21.375Z,24.30
2022-12-05T02:50:51.058Z,23.83
2022-12-05T02:53:20.380Z,23.03
2022-12-05T02:55:48.258Z,24.73
2022-12-05T02:58:20.885Z,24.43
2022-12-05T03:00:49.948Z,24.03
2022-12-05T03:03:19.643Z,24.60
2022-12-05T03:06:05.236Z,24.63
2022-12-05T03:08:41.861Z,22.67
2022-12-05T03:11:09.498Z,23.53
2022-12-05T03:13:44.795Z,24.03
2022-12-05T03:16:24.253Z,22.83
2022-12-05T03:19:01.651Z,23.63
2022-12-05T03:22:24.240Z,23.53
2022-12-05T03:24:51.135Z,22.30
2022-12-05T03:27:20.352Z,21.63
2022-12-05T03:29:59.181Z,23.97
2022-12-05T03:32:31.877Z,23.43
2022-12-05T03:35:21.603Z,21.77
2022-12-05T03:37:55.173Z,21.70
2022-12-05T03:40:44.817Z,21.43
2022-12-05T03:43:29.322Z,21.43
2022-12-05T03:46:03.072Z,21.55
2022-12-05T03:48:42.977Z,22.13
2022-12-05T03:51:12.927Z,19.53
2022-12-05T03:53:50.811Z,21.47
2022-12-05T03:56:47.681Z,20.23
2022-12-05T03:59:26.670Z,20.40
2022-12-05T04:01:56.079Z,21.17
2022-12-05T04:04:39.424Z,19.97
2022-12-05T04:07:08.629Z,19.70
2022-12-05T04:09:39.846Z,19.00
2022-12-05T04:12:12.598Z,18.67
2022-12-05T04:14:45.532Z,18.67
2022-12-05T04:17:37.932Z,19.07
2022-12-05T04:20:30.845Z,18.50
2022-12-05T04:22:58.669Z,18.33
2022-12-05T04:25:34.266Z,17.07
2022-12-05T04:28:23.291Z,17.63
2022-12-05T04:30:58.605Z,18.23
2022-12-05T04:33:39.703Z,17.33
2022-12-05T04:36:21.590Z,17.40
2022-12-05T04:39:18.387Z,17.13
2022-12-05T04:41:52.011Z,18.10
2022-12-05T04:44:24.474Z,16.83
2022-12-05T04:46:54.701Z,15.87
2022-12-05T04:49:25.595Z,17.53
2022-12-05T04:51:56.868Z,17.87
2022-12-05T04:54:46.332Z,17.83
2022-12-05T04:57:19.840Z,17.83
2022-12-05T04:59:47.241Z,16.43
2022-12-05T05:02:19.396Z,17.83
2022-12-05T05:04:51.080Z,18.13
2022-12-05T05:07:18.419Z,19.83
2022-12-05T05:09:45.423Z,17.97
2022-12-05T05:12:18.627Z,20.87
2022-12-05T05:14:45.597Z,17.37
2022-12-05T05:17:12.069Z,17.10
2022-12-05T05:19:38.726Z,16.73
2022-12-05T05:22:05.348Z,18.57
2022-12-05T05:24:31.883Z,17.53
2022-12-05T05:26:58.411Z,17.90
2022-12-05T05:29:25.356Z,16.43
2022-12-05T05:31:51.810Z,17.47
2022-12-05T05:34:18.409Z,17.27
2022-12-05T05:36:44.951Z,17.50
2022-12-05T05:39:14.993Z,17.17
2022-12-05T05:41:42.106Z,17.57
2022-12-05T05:44:08.714Z,18.17
2022-12-05T05:46:35.928Z,16.13
2022-12-05T05:49:02.676Z,17.03
2022-12-05T05:51:30.337Z,16.17
2022-12-05T05:53:58.670Z,15.57
2022-12-05T05:56:25.795Z,16.30
2022-12-05T05:59:01.992Z,16.37
2022-12-05T06:01:30.015Z,18.07
2022-12-05T06:03:57.021Z,19.30
2022-12-05T06:06:24.305Z,17.23
2022-12-05T06:08:50.844Z,16.13
2022-12-05T06:11:25.951Z,16.20
2022-12-05T06:13:56.809Z,16.70
2022-12-05T06:16:23.746Z,16.17
2022-12-05T06:18:51.464Z,15.20
2022-12-05T06:21:17.986Z,16.63
2022-12-05T06:23:45.365Z,15.63
2022-12-05T06:26:14.841Z,15.77
2022-12-05T06:28:41.830Z,14.97
2022-12-05T06:31:14.518Z,14.80
2022-12-05T06:33:41.103Z,14.20
2022-12-05T06:36:10.574Z,14.03
2022-12-05T06:38:41.799Z,14.30
2022-12-05T06:41:11.344Z,15.03
2022-12-05T06:43:37.967Z,16.13
2022-12-05T06:46:06.545Z,15.60
2022-12-05T06:48:33.805Z,14.77
2022-12-05T06:51:00.480Z,14.20
2022-12-05T06:53:27.293Z,12.67
2022-12-05T06:55:57.845Z,15.57
2022-12-05T06:58:25.092Z,16.03
2022-12-05T07:01:10.967Z,14.87
2022-12-05T07:03:37.936Z,13.57
2022-12-05T07:06:07.364Z,13.37
2022-12-05T07:08:34.533Z,14.10
2022-12-05T07:11:02.527Z,14.70
2022-12-05T07:13:29.560Z,14.80
2022-12-05T07:15:56.336Z,15.97
2022-12-05T07:18:23.254Z,15.70
2022-12-05T07:21:15.716Z,15.83
2022-12-05T07:23:44.394Z,16.30
2022-12-05T07:26:22.855Z,17.33
2022-12-05T07:28:50.761Z,16.03
2022-12-05T07:31:22.756Z,16.57
2022-12-05T07:33:50.310Z,15.53
2022-12-05T07:36:20.276Z,15.10
2022-12-05T07:38:47.208Z,13.17
2022-12-05T07:41:21.662Z,12.30
2022-12-05T07:43:48.365Z,12.80
2022-12-05T07:46:14.990Z,12.03
2022-12-05T07:48:41.603Z,12.23
2022-12-05T07:51:09.625Z,15.47
2022-12-05T07:53:37.467Z,12.27
2022-12-05T07:56:06.832Z,12.00
2022-12-05T07:58:34.637Z,13.27
2022-12-05T08:01:18.846Z,13.33
2022-12-05T08:03:46.533Z,12.05
2022-12-05T08:06:19.174Z,14.43
2022-12-05T08:08:46.124Z,12.40
2022-12-05T08:11:27.392Z,12.57
2022-12-05T08:13:54.930Z,13.20
2022-12-05T08:16:25.184Z,12.90
2022-12-05T08:18:56.076Z,12.63
2022-12-05T08:21:25.084Z,14.80
2022-12-05T08:23:52.827Z,13.67
2022-12-05T08:26:22.472Z,14.97
2022-12-05T08:29:00.740Z,14.80
2022-12-05T08:31:29.452Z,12.80
2022-12-05T08:33:59.225Z,12.80
2022-12-05T08:36:28.241Z,14.67
2022-12-05T08:39:03.824Z,15.80
2022-12-05T08:41:31.057Z,15.47
2022-12-05T08:44:05.624Z,15.63
2022-12-05T08:46:34.483Z,15.00
2022-12-05T08:49:01.960Z,14.67
2022-12-05T08:51:28.632Z,14.10
2022-12-05T08:53:56.483Z,13.77
2022-12-05T08:56:27.250Z,13.73
2022-12-05T08:58:58.525Z,11.43
2022-12-05T09:01:32.126Z,11.57
2022-12-05T09:04:04.746Z,15.10
2022-12-05T09:06:32.295Z,16.47
2022-12-05T09:09:01.225Z,13.07
2022-12-05T09:11:31.355Z,12.73
2022-12-05T09:13:59.192Z,12.02
2022-12-05T09:16:35.166Z,10.45
2022-12-05T09:19:04.166Z,10.50
2022-12-05T09:21:31.927Z,10.93
2022-12-05T09:23:59.313Z,11.90
2022-12-05T09:26:29.986Z,11.65
2022-12-05T09:28:57.122Z,11.75
2022-12-05T09:31:25.491Z,10.43
2022-12-05T09:33:52.879Z,11.45
2022-12-05T09:36:23.138Z,11.40
2022-12-05T09:38:50.944Z,11.98
2022-12-05T09:41:55.019Z,10.68
2022-12-05T09:44:43.173Z,11.05
2022-12-05T09:47:27.592Z,11.13
2022-12-05T09:50:21.472Z,10.23
2022-12-05T09:53:09.779Z,8.65
2022-12-05T09:55:50.144Z,10.88
2022-12-05T09:58:21.883Z,8.65
2022-12-05T10:00:53.084Z,7.45
2022-12-05T10:03:45.856Z,7.15
2022-12-05T10:06:25.126Z,6.57
2022-12-05T10:09:10.697Z,7.47
2022-12-05T10:12:03.126Z,6.68
2022-12-05T10:14:44.536Z,6.43
2022-12-05T10:17:31.745Z,7.55
2022-12-05T10:20:02.384Z,6.32
2022-12-05T10:22:54.332Z,7.10
2022-12-05T10:25:23.056Z,6.80
2022-12-05T10:27:52.925Z,6.85
2022-12-05T10:30:24.811Z,6.68
2022-12-05T10:33:09.572Z,6.32
2022-12-05T10:38:14.706Z,6.40
2022-12-05T10:40:46.413Z,7.57
2022-12-05T10:43:16.899Z,7.15
2022-12-05T10:45:48.127Z,5.63
2022-12-05T10:48:17.516Z,6.30
2022-12-05T10:50:48.534Z,6.78
2022-12-05T10:53:26.617Z,6.25
2022-12-05T10:56:28.901Z,6.75
2022-12-05T10:58:55.732Z,6.10
2022-12-05T11:01:23.248Z,7.95
2022-12-05T11:03:57.556Z,6.25
2022-12-05T11:06:27.693Z,6.37
2022-12-05T11:09:06.438Z,6.47
2022-12-05T11:11:34.149Z,6.10
2022-12-05T11:14:06.596Z,6.10
2022-12-05T11:16:35.877Z,5.60
2022-12-05T11:19:34.814Z,5.93
2022-12-05T11:22:01.930Z,6.75
2022-12-05T11:24:30.559Z,6.00
2022-12-05T11:26:59.225Z,5.90
2022-12-05T11:29:39.560Z,5.38
2022-12-05T11:32:20.783Z,5.15
2022-12-05T11:34:56.658Z,4.43
2022-12-05T11:37:40.263Z,4.80
2022-12-05T11:40:28.401Z,4.53
2022-12-05T11:43:32.897Z,4.63
2022-12-05T11:46:14.726Z,5.00
2022-12-05T11:49:31.263Z,4.40
2022-12-05T11:52:16.288Z,4.45
2022-12-05T11:57:57.066Z,4.22
2022-12-05T12:00:33.105Z,3.85
2022-12-05T12:03:21.218Z,4.93
2022-12-05T12:06:12.800Z,5.05
2022-12-05T12:08:39.652Z,4.30
2022-12-05T12:11:24.988Z,5.22
2022-12-05T12:14:16.033Z,4.30
2022-12-05T12:17:00.905Z,4.00
2022-12-05T12:19:46.081Z,4.40
2022-12-05T12:22:18.815Z,4.03
2022-12-05T12:25:14.001Z,4.18
2022-12-05T12:28:22.261Z,2.63
2022-12-05T12:30:48.707Z,2.50
2022-12-05T12:33:29.825Z,2.80
2022-12-05T12:36:15.409Z,2.63
2022-12-05T12:38:59.241Z,2.15
2022-12-05T12:41:54.138Z,2.40
2022-12-05T12:44:40.530Z,1.98
2022-12-05T12:47:34.757Z,2.22
2022-12-05T12:50:16.835Z,1.58
2022-12-05T12:53:02.017Z,2.10
2022-12-05T12:55:51.466Z,1.90
2022-12-05T12:58:24.412Z,2.30
2022-12-05T13:00:57.401Z,2.10
2022-12-05T13:03:51.841Z,2.03
2022-12-05T13:06:28.813Z,2.17
2022-12-05T13:09:01.460Z,1.80
2022-12-05T13:11:33.883Z,1.65
2022-12-05T13:14:02.146Z,1.88
2022-12-05T13:16:33.800Z,2.00
2022-12-05T13:19:02.241Z,2.38
2022-12-05T13:21:30.006Z,2.30
2022-12-05T13:24:03.705Z,2.25
2022-12-05T13:26:33.020Z,1.77
2022-12-05T13:29:02.288Z,1.73
2022-12-05T13:31:58.785Z,1.33
2022-12-05T13:34:46.057Z,1.75
2022-12-05T13:37:38.953Z,1.70
2022-12-05T13:40:28.456Z,2.28
2022-12-05T13:43:02.278Z,1.70
2022-12-05T13:45:29.403Z,2.00
2022-12-05T13:48:07.000Z,2.00
2022-12-05T13:50:43.275Z,2.90
2022-12-05T13:53:27.679Z,3.10
2022-12-05T13:55:59.980Z,3.10
2022-12-05T13:58:41.616Z,2.50
2022-12-05T14:01:27.644Z,2.35
2022-12-05T14:04:00.121Z,2.78
2022-12-05T14:06:38.613Z,2.45
2022-12-05T14:09:28.355Z,2.55
2022-12-05T14:12:10.244Z,2.97
2022-12-05T14:14:55.434Z,2.72
2022-12-05T14:17:31.020Z,3.35
2022-12-05T14:20:20.073Z,3.08
2022-12-05T14:23:13.132Z,3.08
2022-12-05T14:26:16.789Z,3.15
2022-12-05T14:28:46.011Z,2.17
2022-12-05T14:31:36.987Z,2.28
2022-12-05T14:34:18.309Z,2.63
2022-12-05T14:37:24.285Z,2.70
2022-12-05T14:39:53.976Z,1.95
2022-12-05T14:42:26.832Z,2.75
2022-12-05T14:45:00.421Z,3.72
2022-12-05T14:47:30.965Z,4.53
2022-12-05T14:50:02.655Z,4.55
2022-12-05T14:52:31.725Z,4.15
2022-12-05T14:55:03.276Z,4.57
2022-12-05T14:57:32.864Z,4.45
2022-12-05T15:00:06.890Z,4.25
2022-12-05T15:02:46.305Z,8.18
2022-12-05T15:05:32.049Z,5.30
2022-12-05T15:08:02.064Z,3.90
2022-12-05T15:10:32.843Z,3.70
2022-12-05T15:13:14.841Z,4.53
2022-12-05T15:15:45.916Z,4.20
2022-12-05T15:18:24.936Z,4.38
2022-12-05T15:21:04.653Z,3.42
2022-12-05T15:23:37.844Z,3.03
2022-12-05T15:26:44.770Z,3.45
2022-12-05T15:29:06.557Z,4.47
2022-12-05T15:32:03.761Z,3.55
2022-12-05T15:34:44.797Z,2.78
2022-12-05T15:37:11.268Z,2.95
2022-12-05T15:40:00.397Z,3.20
2022-12-05T15:42:35.828Z,2.85
2022-12-05T15:45:17.714Z,2.97
2022-12-05T15:47:45.508Z,3.20
2022-12-05T15:50:33.423Z,3.00
2022-12-05T15:53:04.184Z,2.88
2022-12-05T15:55:40.400Z,3.33
2022-12-05T15:58:33.940Z,3.28
2022-12-05T16:01:11.610Z,3.30
2022-12-05T16:03:53.126Z,3.90
2022-12-05T16:06:34.869Z,3.95
2022-12-05T16:09:11.299Z,4.60
2022-12-05T16:11:38.420Z,4.20
2022-12-05T16:14:08.294Z,4.53
2022-12-05T16:16:38.696Z,4.65
2022-12-05T16:19:16.551Z,5.05
2022-12-05T16:21:45.973Z,4.38
2022-12-05T16:24:20.533Z,3.85
2022-12-05T16:27:24.326Z,3.70
2022-12-05T16:30:12.800Z,3.85
2022-12-05T16:32:41.142Z,4.72
2022-12-05T16:35:36.194Z,5.70
2022-12-05T16:38:25.683Z,5.10
2022-12-05T16:40:56.232Z,4.57
2022-12-05T16:43:22.815Z,4.72
2022-12-05T16:45:50.795Z,5.03
2022-12-05T16:48:19.927Z,4.63
2022-12-05T16:50:47.223Z,4.65
2022-12-05T16:53:19.215Z,4.95
2022-12-05T16:55:46.230Z,5.30
2022-12-05T16:58:21.551Z,4.10
2022-12-05T17:00:48.528Z,4.68
2022-12-05T17:03:33.403Z,4.85
2022-12-05T17:06:00.613Z,4.88
2022-12-05T17:08:27.665Z,4.95
2022-12-05T17:10:54.300Z,6.43
2022-12-05T17:13:21.418Z,5.85
2022-12-05T17:15:48.139Z,6.95
2022-12-05T17:18:18.021Z,5.50
2022-12-05T17:20:48.412Z,5.55
2022-12-05T17:23:15.961Z,5.55
2022-12-05T17:25:46.000Z,5.18
2022-12-05T17:28:12.570Z,4.78
2022-12-05T17:30:40.010Z,5.45
2022-12-05T17:33:09.654Z,7.32
2022-12-05T17:35:36.234Z,8.85
2022-12-05T17:38:04.307Z,8.60
2022-12-05T17:40:31.614Z,6.63
2022-12-05T17:42:58.146Z,6.90
2022-12-05T17:45:25.124Z,6.75
2022-12-05T17:47:52.117Z,6.53
2022-12-05T17:50:21.831Z,6.20
2022-12-05T17:52:49.793Z,6.55
2022-12-05T17:55:28.954Z,6.43
2022-12-05T17:57:55.940Z,7.05
2022-12-05T18:00:24.393Z,7.75
2022-12-05T18:02:52.335Z,12.65
2022-12-05T18:05:19.626Z,14.20
2022-12-05T18:07:46.873Z,6.72
2022-12-05T18:10:17.676Z,8.63
2022-12-05T18:12:44.271Z,5.38
2022-12-05T18:15:12.319Z,4.53
2022-12-05T18:17:39.582Z,4.75
2022-12-05T18:20:08.198Z,4.25
2022-12-05T18:22:35.185Z,3.78
2022-12-05T18:25:03.423Z,3.92
2022-12-05T18:27:31.014Z,4.40
2022-12-05T18:29:57.605Z,3.50
2022-12-05T18:32:24.440Z,2.80
2022-12-05T18:34:51.035Z,3.50
2022-12-05T18:37:18.336Z,3.35
2022-12-05T18:39:45.842Z,3.70
2022-12-05T18:42:15.260Z,2.75
2022-12-05T18:44:43.274Z,3.65
2022-12-05T18:47:09.856Z,2.88
2022-12-05T18:49:36.389Z,3.22
2022-12-05T18:52:02.998Z,3.67
2022-12-05T18:54:29.595Z,4.18
2022-12-05T18:56:56.151Z,3.17
2022-12-05T18:59:22.706Z,2.97
2022-12-05T19:01:50.439Z,4.97
2022-12-05T19:04:19.660Z,4.13
2022-12-05T19:06:49.539Z,2.75
2022-12-05T19:09:17.734Z,2.80
2022-12-05T19:11:47.685Z,2.35
2022-12-05T19:14:16.184Z,2.92
2022-12-05T19:16:43.141Z,2.65
2022-12-05T19:19:14.459Z,2.28
2022-12-05T19:21:41.205Z,2.63
2022-12-05T19:24:08.900Z,2.30
2022-12-05T19:26:36.217Z,2.67
2022-12-05T19:29:03.265Z,2.65
2022-12-05T19:31:30.686Z,2.58
2022-12-05T19:34:01.739Z,2.70
2022-12-05T19:36:35.675Z,2.72
2022-12-05T19:39:08.966Z,2.40
2022-12-05T19:41:35.969Z,2.30
2022-12-05T19:44:02.914Z,2.83
2022-12-05T19:46:31.140Z,4.63
2022-12-05T19:48:59.561Z,2.80
2022-12-05T19:51:26.524Z,2.40
2022-12-05T19:53:53.547Z,2.25
2022-12-05T19:56:25.294Z,2.22
2022-12-05T19:58:53.833Z,2.40
2022-12-05T20:01:29.514Z,2.30
2022-12-05T20:03:59.199Z,1.90
2022-12-05T20:06:26.452Z,1.95
2022-12-05T20:08:53.765Z,1.90
2022-12-05T20:11:24.750Z,2.33
2022-12-05T20:13:53.500Z,2.55
2022-12-05T20:16:21.782Z,2.80
2022-12-05T20:18:49.727Z,2.50
2022-12-05T20:21:19.510Z,2.45
2022-12-05T20:23:48.028Z,2.30
2022-12-05T20:26:17.333Z,2.38
2022-12-05T20:28:44.795Z,2.17
2022-12-05T20:31:19.400Z,2.33
2022-12-05T20:33:46.530Z,2.60
2022-12-05T20:36:15.537Z,2.70
2022-12-05T20:38:43.082Z,2.65
2022-12-05T20:41:15.589Z,2.10
2022-12-05T20:43:44.004Z,2.22
2022-12-05T20:46:17.944Z,2.45
2022-12-05T20:48:45.936Z,2.75
2022-12-05T20:51:15.480Z,1.98
2022-12-05T20:53:43.396Z,2.30
2022-12-05T20:56:11.614Z,1.73
2022-12-05T20:58:38.823Z,2.50
2022-12-05T21:01:10.167Z,2.10
2022-12-05T21:03:40.868Z,2.10
2022-12-05T21:06:13.763Z,2.28
2022-12-05T21:08:40.776Z,2.22
2022-12-05T21:11:08.359Z,2.30
2022-12-05T21:13:35.357Z,2.42
2022-12-05T21:16:04.313Z,2.75
2022-12-05T21:18:30.964Z,2.67
2022-12-05T21:21:14.599Z,2.50
2022-12-05T21:23:42.617Z,2.35
2022-12-05T21:26:12.951Z,2.95
2022-12-05T21:28:40.311Z,2.50
2022-12-05T21:31:19.731Z,3.55
2022-12-05T21:33:51.847Z,2.67
2022-12-05T21:36:19.515Z,3.22
2022-12-05T21:38:50.852Z,2.97
2022-12-05T21:41:22.155Z,3.40
2022-12-05T21:43:54.022Z,2.22
2022-12-05T21:46:21.985Z,2.83
2022-12-05T21:48:48.665Z,2.08
2022-12-05T21:51:15.362Z,2.53
2022-12-05T21:53:42.278Z,2.40
2022-12-05T21:56:15.625Z,2.55
2022-12-05T21:58:44.276Z,3.08
2022-12-05T22:01:17.260Z,3.03
2022-12-05T22:03:44.340Z,2.03
2022-12-05T22:06:12.568Z,3.05
2022-12-05T22:08:39.168Z,2.20
2022-12-05T22:11:08.368Z,3.10
2022-12-05T22:13:35.836Z,3.15
2022-12-05T22:16:03.355Z,3.33
2022-12-05T22:18:31.127Z,2.75
2022-12-05T22:21:06.278Z,2.20
2022-12-05T22:23:34.489Z,2.17
2022-12-05T22:26:07.140Z,1.90
2022-12-05T22:28:34.697Z,2.20
2022-12-05T22:31:04.605Z,2.35
2022-12-05T22:33:31.728Z,3.22
2022-12-05T22:35:59.867Z,3.28
2022-12-05T22:38:28.873Z,3.10
2022-12-05T22:40:57.577Z,2.97
2022-12-05T22:43:25.908Z,2.45
2022-12-05T22:45:52.833Z,1.50
2022-12-05T22:48:19.820Z,2.17
2022-12-05T22:50:52.293Z,1.70
2022-12-05T22:53:21.041Z,2.38
2022-12-05T22:55:47.846Z,1.75
2022-12-05T22:58:15.147Z,1.63
2022-12-05T23:00:41.932Z,1.67
2022-12-05T23:03:08.888Z,1.77
2022-12-05T23:05:43.484Z,1.80
2022-12-05T23:08:11.698Z,1.92
2022-12-05T23:10:39.542Z,2.65
2022-12-05T23:13:07.408Z,2.35
2022-12-05T23:15:37.597Z,1.70
2022-12-05T23:18:05.020Z,2.63
2022-12-05T23:20:31.782Z,2.10
2022-12-05T23:22:58.547Z,2.15
2022-12-05T23:25:25.054Z,2.92
2022-12-05T23:27:51.611Z,2.20
2022-12-05T23:30:18.273Z,2.40
2022-12-05T23:32:44.868Z,2.22
2022-12-05T23:35:11.797Z,3.22
2022-12-05T23:37:38.478Z,2.90
2022-12-05T23:40:06.036Z,4.28
2022-12-05T23:42:32.545Z,4.30
2022-12-05T23:44:59.079Z,4.22
2022-12-05T23:47:25.836Z,4.50
2022-12-05T23:49:52.383Z,3.95
2022-12-05T23:52:18.904Z,4.18
2022-12-05T23:54:45.484Z,4.53
2022-12-05T23:57:17.228Z,5.03
2022-12-05T23:59:44.274Z,4.97
